Time;durP1;ratioP1;P1;durP2;ratioP2;P2;SDS_P1;SDS_P2;PMS_P1;PMS_P2;Temp;Humidity;BMP_temperature;BMP_pressure;BME280_temperature;BME280_humidity;BME280_pressure;Samples;Min_cycle;Max_cycle;Signal;HPM_P1;HPM_P2
2022/12/17 13:06:40;;;;;;;13.10;10.90;;;;;;;;;;6086379;23;20415;-72
2022/12/17 13:09:33;;;;;;;12.57;11.30;;;;;;;;;;6082648;23;20422;-72
2022/12/17 13:12:27;;;;;;;15.77;11.90;;;;;;;;;;6081796;23;20477;-73
2022/12/17 13:15:24;;;;;;;14.73;11.60;;;;;;;;;;6083155;23;20411;-73
2022/12/17 13:18:24;;;;;;;12.73;10.67;;;;;;;;;;6081724;23;20421;-73
2022/12/17 13:21:28;;;;;;;15.30;11.30;;;;;;;;;;6082273;23;21225;-72
2022/12/17 13:24:24;;;;;;;17.27;12.00;;;;;;;;;;6075782;23;20542;-72
2022/12/17 13:30:20;;;;;;;15.68;12.07;;;;;;;;;;5082855;27;1246769;-73
2022/12/17 13:33:14;;;;;;;12.13;10.83;;;;;;;;;;5072508;28;20264;-78
2022/12/17 13:36:09;;;;;;;14.20;12.00;;;;;;;;;;5069188;28;20468;-79
2022/12/17 13:39:03;;;;;;;12.40;11.03;;;;;;;;;;5054874;28;20446;-78
2022/12/17 13:41:53;;;;;;;11.67;10.47;;;;;;;;;;5063629;28;20473;-77
2022/12/17 13:44:47;;;;;;;13.03;11.13;;;;;;;;;;5057188;28;20454;-78
2022/12/17 13:47:37;;;;;;;14.13;11.17;;;;;;;;;;5060437;28;20476;-75
2022/12/17 13:50:27;;;;;;;14.83;11.07;;;;;;;;;;5061740;28;20465;-76
2022/12/17 13:53:24;;;;;;;16.97;11.70;;;;;;;;;;5048207;28;20909;-76
2022/12/17 13:56:13;;;;;;;13.37;11.60;;;;;;;;;;5046404;28;20453;-76
2022/12/17 13:59:02;;;;;;;14.20;11.10;;;;;;;;;;5060873;28;20448;-75
2022/12/17 14:01:57;;;;;;;13.40;10.93;;;;;;;;;;5063881;28;20560;-76
2022/12/17 14:04:52;;;;;;;17.10;12.60;;;;;;;;;;5065807;22;21077;-77
2022/12/17 14:07:41;;;;;;;15.77;13.80;;;;;;;;;;5033214;28;20507;-75
2022/12/17 14:10:30;;;;;;;18.77;13.13;;;;;;;;;;5028317;28;20454;-75
2022/12/17 14:13:18;;;;;;;14.90;12.90;;;;;;;;;;5028509;28;20481;-75
2022/12/17 14:16:07;;;;;;;16.50;12.27;;;;;;;;;;5035552;28;20478;-74
2022/12/17 14:18:57;;;;;;;19.23;14.27;;;;;;;;;;5029178;28;20494;-76
2022/12/17 14:21:47;;;;;;;15.50;12.73;;;;;;;;;;5029162;28;20510;-76
2022/12/17 14:24:35;;;;;;;18.37;13.70;;;;;;;;;;5032692;28;20507;-75
2022/12/17 14:27:26;;;;;;;16.17;13.57;;;;;;;;;;5029492;28;20804;-75
2022/12/17 14:30:21;;;;;;;16.93;14.03;;;;;;;;;;5038639;28;20458;-74
2022/12/17 14:33:26;;;;;;;16.33;14.50;;;;;;;;;;5033138;28;21021;-77
2022/12/17 14:36:20;;;;;;;15.97;13.70;;;;;;;;;;5034039;28;20722;-77
2022/12/17 14:39:18;;;;;;;15.87;14.00;;;;;;;;;;5033419;28;20552;-76
2022/12/17 14:42:28;;;;;;;17.37;14.10;;;;;;;;;;5017670;28;21372;-75
2022/12/17 14:45:24;;;;;;;16.90;14.20;;;;;;;;;;5013270;28;20550;-76
2022/12/17 14:48:16;;;;;;;19.67;14.73;;;;;;;;;;5020076;28;20601;-75
2022/12/17 14:51:04;;;;;;;16.60;14.90;;;;;;;;;;5015992;28;20932;-75
2022/12/17 14:53:53;;;;;;;20.10;14.40;;;;;;;;;;5004844;28;20507;-77
2022/12/17 14:56:45;;;;;;;19.90;15.13;;;;;;;;;;4987446;28;20542;-77
2022/12/17 14:59:35;;;;;;;18.07;14.43;;;;;;;;;;5003158;28;20488;-76
2022/12/17 15:02:26;;;;;;;22.87;14.97;;;;;;;;;;5020110;28;20486;-76
2022/12/17 15:05:21;;;;;;;19.10;14.70;;;;;;;;;;5016158;28;20506;-76
2022/12/17 15:08:12;;;;;;;17.87;14.13;;;;;;;;;;5028935;28;20456;-77
2022/12/17 15:11:02;;;;;;;17.67;13.97;;;;;;;;;;5025535;28;20617;-75
2022/12/17 15:13:53;;;;;;;19.23;14.53;;;;;;;;;;5025946;28;20470;-75
2022/12/17 15:16:44;;;;;;;16.53;14.70;;;;;;;;;;5027477;28;20521;-76
2022/12/17 15:19:33;;;;;;;16.47;12.97;;;;;;;;;;5023013;28;20468;-75
2022/12/17 15:22:22;;;;;;;17.40;13.70;;;;;;;;;;5024168;28;20644;-76
2022/12/17 15:25:11;;;;;;;17.00;14.53;;;;;;;;;;5028077;28;20474;-77
2022/12/17 15:28:02;;;;;;;20.67;14.37;;;;;;;;;;5035458;28;20458;-78
2022/12/17 15:30:54;;;;;;;18.33;14.93;;;;;;;;;;5031101;28;20438;-77
2022/12/17 15:33:43;;;;;;;21.23;15.77;;;;;;;;;;5027457;28;20485;-76
2022/12/17 15:36:32;;;;;;;18.07;15.57;;;;;;;;;;5027986;28;20486;-76
2022/12/17 15:39:21;;;;;;;18.37;15.13;;;;;;;;;;5024597;28;21589;-77
2022/12/17 15:45:17;;;;;;;14.57;13.07;;;;;;;;;;5015809;28;20483;-77
2022/12/17 15:48:10;;;;;;;17.67;14.27;;;;;;;;;;5023023;28;20460;-77
2022/12/17 15:51:01;;;;;;;17.87;14.70;;;;;;;;;;5022056;28;20448;-76
2022/12/17 15:53:49;;;;;;;16.17;12.80;;;;;;;;;;5023819;28;20486;-77
2022/12/17 15:56:41;;;;;;;15.03;13.00;;;;;;;;;;5031112;28;20488;-77
2022/12/17 15:59:32;;;;;;;16.27;12.57;;;;;;;;;;5029370;28;20487;-78
2022/12/17 16:02:21;;;;;;;17.83;13.83;;;;;;;;;;5017925;28;20475;-78
2022/12/17 16:05:12;;;;;;;21.10;15.10;;;;;;;;;;4995704;28;20479;-76
2022/12/17 16:08:02;;;;;;;25.70;17.90;;;;;;;;;;5011174;28;20519;-78
2022/12/17 16:10:50;;;;;;;22.47;17.70;;;;;;;;;;5013850;28;20472;-78
2022/12/17 16:13:39;;;;;;;24.77;17.90;;;;;;;;;;5006884;28;20483;-76
2022/12/17 16:16:30;;;;;;;24.80;18.33;;;;;;;;;;4999168;28;20477;-76
2022/12/17 16:19:36;;;;;;;24.10;16.73;;;;;;;;;;5001524;28;20556;-75
2022/12/17 16:22:28;;;;;;;20.07;15.57;;;;;;;;;;5009601;28;20873;-75
2022/12/17 16:25:19;;;;;;;18.10;14.57;;;;;;;;;;5023465;28;20483;-75
2022/12/17 16:28:10;;;;;;;21.03;17.27;;;;;;;;;;5021860;28;20467;-77
2022/12/17 16:31:03;;;;;;;25.20;17.50;;;;;;;;;;5020002;28;20463;-76
2022/12/17 16:33:52;;;;;;;20.10;15.30;;;;;;;;;;5008584;28;20544;-77
2022/12/17 16:36:41;;;;;;;23.93;17.10;;;;;;;;;;5012554;28;20948;-77
2022/12/17 16:39:32;;;;;;;23.07;17.47;;;;;;;;;;5007080;28;20479;-76
2022/12/17 16:42:23;;;;;;;21.50;17.20;;;;;;;;;;5009445;28;20486;-77
2022/12/17 16:45:12;;;;;;;19.13;15.03;;;;;;;;;;5022437;28;20498;-78
2022/12/17 16:48:01;;;;;;;21.87;16.70;;;;;;;;;;5033472;28;20455;-77
2022/12/17 16:50:52;;;;;;;20.40;16.50;;;;;;;;;;5028013;28;20443;-77
2022/12/17 16:53:42;;;;;;;25.00;17.00;;;;;;;;;;5032976;28;20497;-76
2022/12/17 16:56:32;;;;;;;20.97;15.30;;;;;;;;;;5029880;28;20473;-77
2022/12/17 16:59:30;;;;;;;25.13;17.70;;;;;;;;;;5031846;28;20464;-77
2022/12/17 17:02:21;;;;;;;22.17;16.63;;;;;;;;;;5019398;28;20500;-76
2022/12/17 17:05:12;;;;;;;26.67;19.87;;;;;;;;;;5032210;28;20482;-76
2022/12/17 17:08:01;;;;;;;26.90;21.03;;;;;;;;;;5032082;28;20454;-78
2022/12/17 17:10:49;;;;;;;23.60;19.27;;;;;;;;;;5031159;28;20981;-76
2022/12/17 17:13:40;;;;;;;18.87;15.83;;;;;;;;;;5019107;28;20499;-76
2022/12/17 17:16:32;;;;;;;23.70;17.13;;;;;;;;;;5021152;28;20509;-78
2022/12/17 17:19:21;;;;;;;18.33;15.20;;;;;;;;;;5015667;28;20458;-75
2022/12/17 17:22:10;;;;;;;19.30;15.73;;;;;;;;;;5022572;28;20475;-76
2022/12/17 17:24:58;;;;;;;22.70;16.37;;;;;;;;;;5020317;28;20481;-74
2022/12/17 17:27:47;;;;;;;23.17;16.60;;;;;;;;;;5030400;28;20461;-76
2022/12/17 17:30:37;;;;;;;23.10;16.97;;;;;;;;;;5031413;28;20534;-76
2022/12/17 17:33:29;;;;;;;22.57;16.40;;;;;;;;;;5010887;28;20488;-78
2022/12/17 17:36:22;;;;;;;21.73;16.73;;;;;;;;;;5028378;28;20500;-78
2022/12/17 17:39:15;;;;;;;24.73;17.17;;;;;;;;;;5031798;28;20460;-76
2022/12/17 17:42:04;;;;;;;21.97;16.77;;;;;;;;;;5025249;28;21094;-76
2022/12/17 17:44:53;;;;;;;26.70;18.93;;;;;;;;;;5021464;28;20467;-76
2022/12/17 17:47:43;;;;;;;19.70;16.50;;;;;;;;;;5021066;28;20502;-77
2022/12/17 17:50:32;;;;;;;29.93;19.90;;;;;;;;;;5030060;28;20438;-76
2022/12/17 17:53:22;;;;;;;25.10;19.20;;;;;;;;;;5019393;28;20481;-75
2022/12/17 17:56:14;;;;;;;27.23;19.47;;;;;;;;;;5017124;28;20578;-76
2022/12/17 17:59:06;;;;;;;23.10;17.87;;;;;;;;;;5024178;28;20451;-78
2022/12/17 18:01:59;;;;;;;20.90;17.37;;;;;;;;;;5019648;28;20486;-77
2022/12/17 18:04:50;;;;;;;23.90;18.43;;;;;;;;;;5029754;28;20465;-77
2022/12/17 18:07:41;;;;;;;20.20;15.50;;;;;;;;;;5030471;28;20561;-77
2022/12/17 18:10:30;;;;;;;21.30;16.00;;;;;;;;;;5030358;28;20469;-77
2022/12/17 18:16:28;;;;;;;21.87;16.90;;;;;;;;;;5031319;28;20485;-78
2022/12/17 18:19:22;;;;;;;25.33;17.70;;;;;;;;;;5028095;28;20642;-80
2022/12/17 18:22:15;;;;;;;19.57;16.83;;;;;;;;;;5028890;28;20491;-78
2022/12/17 18:25:11;;;;;;;23.63;17.90;;;;;;;;;;5033664;28;20462;-79
2022/12/17 18:28:02;;;;;;;25.13;17.17;;;;;;;;;;5045227;28;20671;-79
2022/12/17 18:30:51;;;;;;;23.37;16.93;;;;;;;;;;5032584;28;20467;-77
2022/12/17 18:33:42;;;;;;;23.50;16.67;;;;;;;;;;5025347;28;20472;-78
2022/12/17 18:36:36;;;;;;;22.03;17.10;;;;;;;;;;5022839;28;21034;-82
2022/12/17 18:39:26;;;;;;;25.30;17.53;;;;;;;;;;5020319;28;21363;-77
2022/12/17 18:45:23;;;;;;;20.80;16.40;;;;;;;;;;5032329;28;20494;-77
2022/12/17 18:48:18;;;;;;;26.23;19.27;;;;;;;;;;5027519;28;20489;-78
2022/12/17 18:51:10;;;;;;;28.10;18.80;;;;;;;;;;5033283;28;20449;-78
2022/12/17 18:54:03;;;;;;;26.00;18.90;;;;;;;;;;5036972;28;20473;-78
2022/12/17 18:56:54;;;;;;;24.50;19.17;;;;;;;;;;5038655;28;20465;-77
2022/12/17 18:59:51;;;;;;;25.77;19.30;;;;;;;;;;5038684;28;20439;-77
2022/12/17 19:02:40;;;;;;;27.13;20.30;;;;;;;;;;5032465;28;20482;-75
2022/12/17 19:05:31;;;;;;;27.43;19.83;;;;;;;;;;5032573;28;20488;-75
2022/12/17 19:08:19;;;;;;;25.23;19.17;;;;;;;;;;5024325;28;20449;-75
2022/12/17 19:11:09;;;;;;;25.03;19.27;;;;;;;;;;5029165;28;20450;-76
2022/12/17 19:13:59;;;;;;;24.60;19.00;;;;;;;;;;4984689;28;20479;-79
2022/12/17 19:16:50;;;;;;;25.53;18.67;;;;;;;;;;5014712;28;20441;-79
2022/12/17 19:19:40;;;;;;;23.77;19.47;;;;;;;;;;5018085;28;20467;-78
2022/12/17 19:22:29;;;;;;;24.00;18.97;;;;;;;;;;5010438;28;20544;-75
2022/12/17 19:25:17;;;;;;;24.90;18.77;;;;;;;;;;5004649;28;20586;-79
2022/12/17 19:28:06;;;;;;;24.60;18.50;;;;;;;;;;4994711;28;20841;-76
2022/12/17 19:30:59;;;;;;;21.80;18.13;;;;;;;;;;5000961;28;20969;-76
2022/12/17 19:33:48;;;;;;;27.87;19.60;;;;;;;;;;5008885;28;20486;-77
2022/12/17 19:36:37;;;;;;;25.17;18.53;;;;;;;;;;5021694;28;20464;-76
2022/12/17 19:39:25;;;;;;;24.33;18.30;;;;;;;;;;5023648;28;20450;-77
2022/12/17 19:42:24;;;;;;;26.00;19.23;;;;;;;;;;5014714;28;20494;-77
2022/12/17 19:45:12;;;;;;;22.20;17.87;;;;;;;;;;5015591;28;20510;-75
2022/12/17 19:48:04;;;;;;;25.50;19.17;;;;;;;;;;5008439;28;20452;-76
2022/12/17 19:50:56;;;;;;;21.93;18.40;;;;;;;;;;5019857;28;20833;-76
2022/12/17 19:53:45;;;;;;;27.00;19.20;;;;;;;;;;5012639;28;20480;-75
2022/12/17 19:56:34;;;;;;;26.60;19.50;;;;;;;;;;5013350;28;21988;-77
2022/12/17 19:59:23;;;;;;;24.57;18.83;;;;;;;;;;5018260;28;20448;-78
2022/12/17 20:02:11;;;;;;;26.47;20.30;;;;;;;;;;5022700;28;21385;-79
2022/12/17 20:05:02;;;;;;;24.80;20.63;;;;;;;;;;5021481;28;20476;-77
2022/12/17 20:07:51;;;;;;;25.33;17.90;;;;;;;;;;5023535;28;20463;-79
2022/12/17 20:10:43;;;;;;;26.90;20.40;;;;;;;;;;5030078;28;20458;-84
2022/12/17 20:13:33;;;;;;;25.37;20.03;;;;;;;;;;5047523;22;20988;-73
2022/12/17 20:16:22;;;;;;;25.50;19.37;;;;;;;;;;5026665;28;20497;-74
2022/12/17 20:19:12;;;;;;;25.40;19.80;;;;;;;;;;5020169;28;20454;-75
2022/12/17 20:22:05;;;;;;;23.30;19.03;;;;;;;;;;5023365;28;20522;-77
2022/12/17 20:24:55;;;;;;;24.67;19.63;;;;;;;;;;5029007;28;20479;-75
2022/12/17 20:27:45;;;;;;;26.80;20.10;;;;;;;;;;5022718;28;20459;-76
2022/12/17 20:30:33;;;;;;;27.50;20.60;;;;;;;;;;5026167;28;21682;-75
2022/12/17 20:33:28;;;;;;;29.97;20.43;;;;;;;;;;5023395;28;20498;-74
2022/12/17 20:36:28;;;;;;;24.90;20.30;;;;;;;;;;5017859;28;20472;-75
2022/12/17 20:39:25;;;;;;;25.23;19.40;;;;;;;;;;5028421;28;20455;-73
2022/12/17 20:42:18;;;;;;;24.83;19.40;;;;;;;;;;5012705;28;20480;-74
2022/12/17 20:45:11;;;;;;;25.87;19.90;;;;;;;;;;5031199;28;20510;-75
2022/12/17 20:48:03;;;;;;;25.63;20.10;;;;;;;;;;5033910;28;20472;-76
2022/12/17 20:50:55;;;;;;;27.83;19.60;;;;;;;;;;5034808;28;20470;-76
2022/12/17 20:53:57;;;;;;;24.83;19.50;;;;;;;;;;5039242;28;21102;-76
2022/12/17 20:56:52;;;;;;;27.63;19.23;;;;;;;;;;5016941;28;20452;-77
2022/12/17 20:59:41;;;;;;;25.70;18.53;;;;;;;;;;5037353;28;20462;-76
2022/12/17 21:02:35;;;;;;;28.37;19.50;;;;;;;;;;5031929;28;20594;-77
2022/12/17 21:05:26;;;;;;;24.17;18.83;;;;;;;;;;5036773;28;20458;-76
2022/12/17 21:08:27;;;;;;;23.40;19.17;;;;;;;;;;5030037;28;20462;-75
2022/12/17 21:11:22;;;;;;;24.57;18.30;;;;;;;;;;5029516;28;20444;-76
2022/12/17 21:14:25;;;;;;;22.47;17.93;;;;;;;;;;5033290;28;20486;-76
2022/12/17 21:17:24;;;;;;;21.77;17.47;;;;;;;;;;5035477;28;20493;-77
2022/12/17 21:20:14;;;;;;;26.73;19.37;;;;;;;;;;5060097;28;20456;-79
2022/12/17 21:23:06;;;;;;;25.43;18.80;;;;;;;;;;5052037;28;20475;-78
2022/12/17 21:26:03;;;;;;;22.40;18.00;;;;;;;;;;5032652;28;20541;-79
2022/12/17 21:28:58;;;;;;;25.10;18.30;;;;;;;;;;5040969;28;20447;-77
2022/12/17 21:31:59;;;;;;;25.67;19.20;;;;;;;;;;5034144;28;20471;-78
2022/12/17 21:34:53;;;;;;;23.43;18.00;;;;;;;;;;5037113;28;20472;-79
2022/12/17 21:37:52;;;;;;;22.23;17.70;;;;;;;;;;5047883;28;20462;-79
2022/12/17 21:40:44;;;;;;;23.77;18.10;;;;;;;;;;5066939;28;20524;-81
2022/12/17 21:43:36;;;;;;;23.10;17.83;;;;;;;;;;5038236;28;20466;-80
2022/12/17 21:46:30;;;;;;;24.27;18.13;;;;;;;;;;5038264;28;20560;-78
2022/12/17 21:49:21;;;;;;;28.03;18.77;;;;;;;;;;5026054;28;20467;-78
2022/12/17 21:52:13;;;;;;;22.33;17.03;;;;;;;;;;5027372;28;20479;-79
2022/12/17 21:55:10;;;;;;;23.63;17.70;;;;;;;;;;5027772;28;20477;-79
2022/12/17 21:58:05;;;;;;;23.30;18.73;;;;;;;;;;5036281;28;20927;-79
2022/12/17 22:00:58;;;;;;;23.80;17.13;;;;;;;;;;5029055;28;20605;-79
2022/12/17 22:03:57;;;;;;;22.50;17.47;;;;;;;;;;5034516;28;20505;-79
2022/12/17 22:06:51;;;;;;;25.07;18.50;;;;;;;;;;5038849;28;21135;-78
2022/12/17 22:09:55;;;;;;;22.10;17.37;;;;;;;;;;5046041;28;20848;-79
2022/12/17 22:16:17;;;;;;;24.80;18.17;;;;;;;;;;5026741;28;20450;-79
2022/12/17 22:19:12;;;;;;;24.10;17.00;;;;;;;;;;5031162;28;20439;-79
2022/12/17 22:22:06;;;;;;;25.33;17.20;;;;;;;;;;5041558;28;21014;-80
2022/12/17 22:25:00;;;;;;;21.40;16.90;;;;;;;;;;5041299;28;20535;-80
2022/12/17 22:27:56;;;;;;;21.73;16.80;;;;;;;;;;5042859;28;20944;-79
2022/12/17 22:34:11;;;;;;;21.13;15.97;;;;;;;;;;5036279;28;20504;-80
2022/12/17 22:37:35;;;;;;;20.77;16.87;;;;;;;;;;5036291;28;20500;-81
2022/12/17 22:40:49;;;;;;;20.87;16.10;;;;;;;;;;5033962;28;20477;-80
2022/12/17 22:44:04;;;;;;;19.60;15.20;;;;;;;;;;5033093;28;20519;-78
2022/12/17 22:47:17;;;;;;;19.50;15.20;;;;;;;;;;5030226;28;20955;-79
2022/12/17 22:50:11;;;;;;;19.27;15.53;;;;;;;;;;5031007;28;20540;-79
2022/12/17 22:53:09;;;;;;;19.23;15.43;;;;;;;;;;5021983;28;21516;-78
2022/12/17 22:56:05;;;;;;;21.27;16.10;;;;;;;;;;5031201;28;20565;-79
2022/12/17 22:59:16;;;;;;;21.30;16.10;;;;;;;;;;5024120;28;20459;-78
2022/12/17 23:02:10;;;;;;;17.93;15.00;;;;;;;;;;5025327;28;20476;-77
2022/12/17 23:04:58;;;;;;;19.73;15.67;;;;;;;;;;5024957;28;20617;-78
2022/12/17 23:07:53;;;;;;;20.20;15.80;;;;;;;;;;5016873;28;20581;-78
2022/12/17 23:10:45;;;;;;;19.20;15.13;;;;;;;;;;5015478;28;20482;-76
2022/12/17 23:13:38;;;;;;;19.30;14.50;;;;;;;;;;5016024;28;20576;-79
2022/12/17 23:16:30;;;;;;;16.67;12.60;;;;;;;;;;5021477;28;20469;-77
2022/12/17 23:19:21;;;;;;;22.00;14.80;;;;;;;;;;5015697;28;21118;-76
2022/12/17 23:22:13;;;;;;;18.47;13.63;;;;;;;;;;5018289;28;21097;-77
2022/12/17 23:25:14;;;;;;;17.37;13.50;;;;;;;;;;5027717;28;20521;-80
2022/12/17 23:28:04;;;;;;;18.93;15.40;;;;;;;;;;5035322;28;20461;-78
2022/12/17 23:31:01;;;;;;;19.53;15.30;;;;;;;;;;5040534;28;20601;-78
2022/12/17 23:33:56;;;;;;;21.17;14.93;;;;;;;;;;5048988;28;20472;-78
2022/12/17 23:36:53;;;;;;;22.03;15.10;;;;;;;;;;5043947;28;20511;-79
2022/12/17 23:39:49;;;;;;;18.90;15.00;;;;;;;;;;5049215;28;20527;-79
2022/12/17 23:42:49;;;;;;;23.13;15.53;;;;;;;;;;5045830;28;20517;-79
2022/12/17 23:45:45;;;;;;;20.10;14.30;;;;;;;;;;5049541;28;20460;-80
2022/12/17 23:48:43;;;;;;;17.90;14.17;;;;;;;;;;5038186;28;20443;-78
2022/12/17 23:51:36;;;;;;;18.60;14.50;;;;;;;;;;5036814;28;20478;-78
2022/12/17 23:54:27;;;;;;;22.37;14.83;;;;;;;;;;5036907;28;20479;-80
2022/12/17 23:57:42;;;;;;;21.83;14.70;;;;;;;;;;5048520;28;20817;-80
